Data ze zpráv METAR

Na této stránce "Data ze zpráv METAR" si můžete prohlédnout aktuální data o počasí z českých letišť.

LKKB - Kbely, Czech Republic
Distance from station: JJZ 98km
Aktualizováno v: 20/10/2017 16:25
Mist, Zataženo
Mist, Zataženo
 Vítr od SV
Vítr: SV 7 km/h
Teplota vzduchu: 10°C
Wind Chill: 9°C
Rosný bod: 10°C
Vlhkost: 100%
Tlak vzduchu: 1017 hPa
Souhrn: Mist
Clouds: Zataženo
Visibility: 2 km
Cloud details: Oblačno 61 m
Zataženo 122 m
2017/10/20 14:25 LKKB 201425Z 04004KT 360V110 1700 BR BKN002 OVC004 10/10 Q1017 RMK AMB
LKPR - Prague/Ruzyne, Czech Republic
Distance from station: JJZ 108km
Aktualizováno v: 20/10/2017 16:00
Polojasno
Polojasno
 Vítr od VSV
Vítr: VSV 7 km/h
Teplota vzduchu: 14°C
Rosný bod: 10°C
Vlhkost: 77%
Tlak vzduchu: 1016 hPa
Clouds: Polojasno
Visibility: 8 km
2017/10/20 14:00 LKPR 201400Z 07004KT 030V090 8000 NSC 14/10 Q1016 NOSIG
 
LKPD - Pardubice, Czech Republic
Distance from station: JJV 111km
Aktualizováno v: 20/10/2017 16:00
Polojasno
Polojasno
 Vítr od varies
Vítr: varies 4 km/h
Teplota vzduchu: 13°C
Rosný bod: 10°C
Vlhkost: 82%
Tlak vzduchu: 1016 hPa
Clouds: Polojasno
Visibility: 8 km
2017/10/20 14:00 LKPD 201400Z VRB02KT 8000 NSC 13/10 Q1016 NOSIG RMK BLU BLU
LKCV - Caslav, Czech Republic
Distance from station: JJV 113km
Aktualizováno v: 20/10/2017 16:00
Mist, Polojasno
Mist, Polojasno
 Vítr od Z
Vítr: Z 7 km/h
Teplota vzduchu: 12°C
Rosný bod: 11°C
Vlhkost: 94%
Tlak vzduchu: 1016 hPa
Souhrn: Mist
Clouds: Polojasno
Visibility: 2 km
Cloud details: Few Clouds 122 m
Polojasno 3658 m
2017/10/20 14:00 LKCV 201400Z 27004KT 2000 BR FEW004 SCT120 12/11 Q1016 NOSIG RMK YLO YLO
 
LKKV - Karlovy Vary, Czech Republic
Distance from station: ZJZ 173km
Aktualizováno v: 20/10/2017 16:00
Jasno
Jasno
 Vítr od varies
Vítr: varies 2 km/h
Teplota vzduchu: 15°C
Rosný bod: 10°C
Vlhkost: 72%
Tlak vzduchu: 1015 hPa
Souhrn: Jasno
Visibility: greater than 10 km
2017/10/20 14:00 LKKV 201400Z VRB01KT CAVOK 15/10 Q1015
LKLN - Plzen Line, Czech Republic
Distance from station: JZ 189km
Aktualizováno v: 20/10/2017 16:00
Zataženo
Zataženo
 Vítr od J
Vítr: J 4 km/h
Teplota vzduchu: 13°C
Rosný bod: 9°C
Vlhkost: 77%
Tlak vzduchu: 1016 hPa
Clouds: Zataženo
Visibility: 10 km
Cloud details: Zataženo 5182 m
2017/10/20 14:00 LKLN 201400Z AUTO 17002KT 9999 OVC170 13/09 Q1016
 
LKNA - Namest, Czech Republic
Distance from station: JJV 209km
Aktualizováno v: 20/10/2017 16:00
Mist, Few clouds
Mist, Few clouds
 Vítr od J
Vítr: J 6 km/h
Teplota vzduchu: 11°C
Rosný bod: 11°C
Vlhkost: 100%
Tlak vzduchu: 1018 hPa
Souhrn: Mist
Clouds: Few Clouds
Visibility: 2 km
Cloud details: Few Clouds 91 m
2017/10/20 14:00 LKNA 201400Z 17003KT 1600 BR FEW003 11/11 Q1018 NOSIG RMK YLO
LKTB - Brno/Turany, Czech Republic
Distance from station: JJV 230km
Aktualizováno v: 20/10/2017 16:00
Mist, Oblačno
Mist, Oblačno
 Vítr od JZ
Vítr: JZ 6 km/h
Teplota vzduchu: 12°C
Rosný bod: 10°C
Vlhkost: 88%
Tlak vzduchu: 1017 hPa
Souhrn: Mist
Clouds: Oblačno
Visibility: 4 km
Cloud details: Oblačno 213 m
2017/10/20 14:00 LKTB 201400Z 22003KT 190V290 4000 BR BKN007 12/10 Q1017 NOSIG